Eugene, Missouri
Current Conditions -  °F | °C
As of 12:15 PM on Friday 28 Nov 2014 (Local Time) from KAIZ Reporting Station
Clear Clear  
Wind Chill: 57°   Ceiling: Unl
Heat Index: 57°   Visibility: 10mi
Dew Point: 32°   Wind: 18mph
Humidity: 38%   Direction: 200°SSW
Pressure: 29.97"   Gusts: 23mph
Location:  38.35°N, 92.4°W
Report Text: KAIZ 281815Z AUTO 20016G20KT 10SM CLR 14/00 A2997 RMK AO1
Loading
Personal Weather Stations






























Interactive Weather Map New forecast layout! Learn more

10-Day Weather Forecast

Advertisements
Track Severe Weather on mobile